sensor_id;sensor_type;location;lat;lon;timestamp;P1;durP1;ratioP1;P2;durP2;ratioP2
826;SDS011;395;48.132;11.608;2022-09-03T00:02:40;2.70;;;2.50;;
826;SDS011;395;48.132;11.608;2022-09-03T00:10:21;6.93;;;2.43;;
826;SDS011;395;48.132;11.608;2022-09-03T00:13:13;2.87;;;2.67;;
826;SDS011;395;48.132;11.608;2022-09-03T00:15:43;5.53;;;2.13;;
826;SDS011;395;48.132;11.608;2022-09-03T00:18:11;2.50;;;2.30;;
826;SDS011;395;48.132;11.608;2022-09-03T00:20:43;2.50;;;2.10;;
826;SDS011;395;48.132;11.608;2022-09-03T00:23:20;2.90;;;2.70;;
826;SDS011;395;48.132;11.608;2022-09-03T00:28:31;4.50;;;3.10;;
826;SDS011;395;48.132;11.608;2022-09-03T00:31:08;3.97;;;3.67;;
826;SDS011;395;48.132;11.608;2022-09-03T00:33:43;3.13;;;2.83;;
826;SDS011;395;48.132;11.608;2022-09-03T00:36:13;3.57;;;2.80;;
826;SDS011;395;48.132;11.608;2022-09-03T00:38:46;3.00;;;2.70;;
826;SDS011;395;48.132;11.608;2022-09-03T00:49:31;3.23;;;2.90;;
826;SDS011;395;48.132;11.608;2022-09-03T00:52:33;2.47;;;2.27;;
826;SDS011;395;48.132;11.608;2022-09-03T00:55:21;2.70;;;2.50;;
826;SDS011;395;48.132;11.608;2022-09-03T01:00:38;2.27;;;2.13;;
826;SDS011;395;48.132;11.608;2022-09-03T01:06:21;3.07;;;2.60;;
826;SDS011;395;48.132;11.608;2022-09-03T01:12:11;3.27;;;3.03;;
826;SDS011;395;48.132;11.608;2022-09-03T01:30:41;2.90;;;2.70;;
826;SDS011;395;48.132;11.608;2022-09-03T01:34:12;3.60;;;3.27;;
826;SDS011;395;48.132;11.608;2022-09-03T01:39:58;2.93;;;2.50;;
826;SDS011;395;48.132;11.608;2022-09-03T01:45:32;3.47;;;2.83;;
826;SDS011;395;48.132;11.608;2022-09-03T01:59:32;3.80;;;3.50;;
826;SDS011;395;48.132;11.608;2022-09-03T02:02:24;3.10;;;2.90;;
826;SDS011;395;48.132;11.608;2022-09-03T02:05:01;3.17;;;2.97;;
826;SDS011;395;48.132;11.608;2022-09-03T02:07:38;3.40;;;3.13;;
826;SDS011;395;48.132;11.608;2022-09-03T02:10:19;3.17;;;2.87;;
826;SDS011;395;48.132;11.608;2022-09-03T02:12:53;3.60;;;3.30;;
826;SDS011;395;48.132;11.608;2022-09-03T02:15:42;2.80;;;2.60;;
826;SDS011;395;48.132;11.608;2022-09-03T02:18:17;3.40;;;3.20;;
826;SDS011;395;48.132;11.608;2022-09-03T02:20:47;3.47;;;3.17;;
826;SDS011;395;48.132;11.608;2022-09-03T02:23:14;4.77;;;3.03;;
826;SDS011;395;48.132;11.608;2022-09-03T02:25:41;3.17;;;2.90;;
826;SDS011;395;48.132;11.608;2022-09-03T02:28:19;3.60;;;3.30;;
826;SDS011;395;48.132;11.608;2022-09-03T02:30:44;3.63;;;2.97;;
826;SDS011;395;48.132;11.608;2022-09-03T02:33:10;3.10;;;2.77;;
826;SDS011;395;48.132;11.608;2022-09-03T02:35:36;3.73;;;3.40;;
826;SDS011;395;48.132;11.608;2022-09-03T02:38:15;3.60;;;3.30;;
826;SDS011;395;48.132;11.608;2022-09-03T02:40:42;3.57;;;3.27;;
826;SDS011;395;48.132;11.608;2022-09-03T02:43:13;3.43;;;3.13;;
826;SDS011;395;48.132;11.608;2022-09-03T02:45:44;4.30;;;3.20;;
826;SDS011;395;48.132;11.608;2022-09-03T02:48:12;3.53;;;3.33;;
826;SDS011;395;48.132;11.608;2022-09-03T02:50:41;2.80;;;2.60;;
826;SDS011;395;48.132;11.608;2022-09-03T02:53:08;3.67;;;3.27;;
826;SDS011;395;48.132;11.608;2022-09-03T02:55:33;4.10;;;3.67;;
826;SDS011;395;48.132;11.608;2022-09-03T02:57:59;3.63;;;3.33;;
826;SDS011;395;48.132;11.608;2022-09-03T03:00:25;3.50;;;3.20;;
826;SDS011;395;48.132;11.608;2022-09-03T03:02:53;5.53;;;3.70;;
826;SDS011;395;48.132;11.608;2022-09-03T03:05:27;5.50;;;3.20;;
826;SDS011;395;48.132;11.608;2022-09-03T03:08:00;3.97;;;3.67;;
826;SDS011;395;48.132;11.608;2022-09-03T03:10:25;3.83;;;3.53;;
826;SDS011;395;48.132;11.608;2022-09-03T03:12:51;4.17;;;3.77;;
826;SDS011;395;48.132;11.608;2022-09-03T03:15:17;4.77;;;3.70;;
826;SDS011;395;48.132;11.608;2022-09-03T03:17:43;2.90;;;2.70;;
826;SDS011;395;48.132;11.608;2022-09-03T03:20:09;3.50;;;3.03;;
826;SDS011;395;48.132;11.608;2022-09-03T03:22:35;7.13;;;3.27;;
826;SDS011;395;48.132;11.608;2022-09-03T03:25:00;3.70;;;3.40;;
826;SDS011;395;48.132;11.608;2022-09-03T03:27:26;3.67;;;3.37;;
826;SDS011;395;48.132;11.608;2022-09-03T03:29:52;3.80;;;3.40;;
826;SDS011;395;48.132;11.608;2022-09-03T03:32:18;4.00;;;3.70;;
826;SDS011;395;48.132;11.608;2022-09-03T03:34:44;4.60;;;4.20;;
826;SDS011;395;48.132;11.608;2022-09-03T03:37:09;4.23;;;3.83;;
826;SDS011;395;48.132;11.608;2022-09-03T03:39:35;3.80;;;3.50;;
826;SDS011;395;48.132;11.608;2022-09-03T03:42:01;4.40;;;4.00;;
826;SDS011;395;48.132;11.608;2022-09-03T03:44:26;7.23;;;3.90;;
826;SDS011;395;48.132;11.608;2022-09-03T03:46:53;3.47;;;3.17;;
826;SDS011;395;48.132;11.608;2022-09-03T03:49:19;4.20;;;3.87;;
826;SDS011;395;48.132;11.608;2022-09-03T03:51:44;3.53;;;3.23;;
826;SDS011;395;48.132;11.608;2022-09-03T03:54:10;4.20;;;3.67;;
826;SDS011;395;48.132;11.608;2022-09-03T03:56:36;3.97;;;3.67;;
826;SDS011;395;48.132;11.608;2022-09-03T03:59:02;5.13;;;4.23;;
826;SDS011;395;48.132;11.608;2022-09-03T04:01:29;4.00;;;3.60;;
826;SDS011;395;48.132;11.608;2022-09-03T04:03:55;4.73;;;4.30;;
826;SDS011;395;48.132;11.608;2022-09-03T04:06:21;4.20;;;3.63;;
826;SDS011;395;48.132;11.608;2022-09-03T04:08:48;4.00;;;3.70;;
826;SDS011;395;48.132;11.608;2022-09-03T04:11:15;4.30;;;3.90;;
826;SDS011;395;48.132;11.608;2022-09-03T04:13:43;3.73;;;3.43;;
826;SDS011;395;48.132;11.608;2022-09-03T04:16:32;4.60;;;4.20;;
826;SDS011;395;48.132;11.608;2022-09-03T04:18:57;4.17;;;3.77;;
826;SDS011;395;48.132;11.608;2022-09-03T04:21:24;4.20;;;3.90;;
826;SDS011;395;48.132;11.608;2022-09-03T04:23:51;4.43;;;4.07;;
826;SDS011;395;48.132;11.608;2022-09-03T04:26:21;3.70;;;3.40;;
826;SDS011;395;48.132;11.608;2022-09-03T04:28:48;5.13;;;3.87;;
826;SDS011;395;48.132;11.608;2022-09-03T04:31:16;4.40;;;4.00;;
826;SDS011;395;48.132;11.608;2022-09-03T04:33:43;3.90;;;3.60;;
826;SDS011;395;48.132;11.608;2022-09-03T04:38:36;3.93;;;3.63;;
826;SDS011;395;48.132;11.608;2022-09-03T04:41:05;4.33;;;3.93;;
826;SDS011;395;48.132;11.608;2022-09-03T04:43:31;4.00;;;3.70;;
826;SDS011;395;48.132;11.608;2022-09-03T04:45:58;4.17;;;3.80;;
826;SDS011;395;48.132;11.608;2022-09-03T04:48:25;3.77;;;3.47;;
826;SDS011;395;48.132;11.608;2022-09-03T04:50:52;3.67;;;3.33;;
826;SDS011;395;48.132;11.608;2022-09-03T04:53:19;4.50;;;4.10;;
826;SDS011;395;48.132;11.608;2022-09-03T04:55:44;4.17;;;3.77;;
826;SDS011;395;48.132;11.608;2022-09-03T04:58:10;4.70;;;4.23;;
826;SDS011;395;48.132;11.608;2022-09-03T05:00:36;4.37;;;3.93;;
826;SDS011;395;48.132;11.608;2022-09-03T05:03:02;3.73;;;3.43;;
826;SDS011;395;48.132;11.608;2022-09-03T05:05:29;4.37;;;3.90;;
826;SDS011;395;48.132;11.608;2022-09-03T05:07:57;3.93;;;3.63;;
826;SDS011;395;48.132;11.608;2022-09-03T05:10:25;4.10;;;3.80;;
826;SDS011;395;48.132;11.608;2022-09-03T05:13:02;4.93;;;3.37;;
826;SDS011;395;48.132;11.608;2022-09-03T05:15:29;4.40;;;4.00;;
826;SDS011;395;48.132;11.608;2022-09-03T05:18:00;3.87;;;3.57;;
826;SDS011;395;48.132;11.608;2022-09-03T05:20:27;3.23;;;3.03;;
826;SDS011;395;48.132;11.608;2022-09-03T05:22:54;3.70;;;3.40;;
826;SDS011;395;48.132;11.608;2022-09-03T05:25:21;6.80;;;3.80;;
826;SDS011;395;48.132;11.608;2022-09-03T05:27:47;4.00;;;3.70;;
826;SDS011;395;48.132;11.608;2022-09-03T05:30:12;4.30;;;3.30;;
826;SDS011;395;48.132;11.608;2022-09-03T05:32:38;4.30;;;3.97;;
826;SDS011;395;48.132;11.608;2022-09-03T05:35:05;3.83;;;3.53;;
826;SDS011;395;48.132;11.608;2022-09-03T05:37:31;4.33;;;3.93;;
826;SDS011;395;48.132;11.608;2022-09-03T05:39:57;3.73;;;3.37;;
826;SDS011;395;48.132;11.608;2022-09-03T05:42:23;4.20;;;3.80;;
826;SDS011;395;48.132;11.608;2022-09-03T05:44:49;3.60;;;3.40;;
826;SDS011;395;48.132;11.608;2022-09-03T05:47:15;7.30;;;4.07;;
826;SDS011;395;48.132;11.608;2022-09-03T05:49:41;7.77;;;4.37;;
826;SDS011;395;48.132;11.608;2022-09-03T05:52:06;3.87;;;3.57;;
826;SDS011;395;48.132;11.608;2022-09-03T05:54:33;7.83;;;4.30;;
826;SDS011;395;48.132;11.608;2022-09-03T05:56:59;4.33;;;3.93;;
826;SDS011;395;48.132;11.608;2022-09-03T05:59:25;4.57;;;4.07;;
826;SDS011;395;48.132;11.608;2022-09-03T06:01:51;4.97;;;4.53;;
826;SDS011;395;48.132;11.608;2022-09-03T06:04:17;4.40;;;3.93;;
826;SDS011;395;48.132;11.608;2022-09-03T06:06:43;4.70;;;3.60;;
826;SDS011;395;48.132;11.608;2022-09-03T06:09:18;3.43;;;3.23;;
826;SDS011;395;48.132;11.608;2022-09-03T06:11:45;3.63;;;3.33;;
826;SDS011;395;48.132;11.608;2022-09-03T06:14:14;3.93;;;3.53;;
826;SDS011;395;48.132;11.608;2022-09-03T06:16:44;4.77;;;3.73;;
826;SDS011;395;48.132;11.608;2022-09-03T06:19:13;4.83;;;3.20;;
826;SDS011;395;48.132;11.608;2022-09-03T06:21:39;4.00;;;3.70;;
826;SDS011;395;48.132;11.608;2022-09-03T06:24:07;4.63;;;3.83;;
826;SDS011;395;48.132;11.608;2022-09-03T06:26:34;4.57;;;3.47;;
826;SDS011;395;48.132;11.608;2022-09-03T06:29:00;4.80;;;4.33;;
826;SDS011;395;48.132;11.608;2022-09-03T06:31:26;5.50;;;3.97;;
826;SDS011;395;48.132;11.608;2022-09-03T06:33:52;4.10;;;3.80;;
826;SDS011;395;48.132;11.608;2022-09-03T06:36:18;4.63;;;3.50;;
826;SDS011;395;48.132;11.608;2022-09-03T06:38:46;3.80;;;3.40;;
826;SDS011;395;48.132;11.608;2022-09-03T06:41:16;3.90;;;3.60;;
826;SDS011;395;48.132;11.608;2022-09-03T06:43:47;4.77;;;3.97;;
826;SDS011;395;48.132;11.608;2022-09-03T06:46:14;6.13;;;4.20;;
826;SDS011;395;48.132;11.608;2022-09-03T06:48:42;6.87;;;5.23;;
826;SDS011;395;48.132;11.608;2022-09-03T06:51:12;7.27;;;5.20;;
826;SDS011;395;48.132;11.608;2022-09-03T06:53:40;6.20;;;5.20;;
826;SDS011;395;48.132;11.608;2022-09-03T06:56:14;5.80;;;4.93;;
826;SDS011;395;48.132;11.608;2022-09-03T06:58:43;4.80;;;4.30;;
826;SDS011;395;48.132;11.608;2022-09-03T07:03:40;4.40;;;3.77;;
826;SDS011;395;48.132;11.608;2022-09-03T07:06:11;5.10;;;4.60;;
826;SDS011;395;48.132;11.608;2022-09-03T07:08:42;4.33;;;3.93;;
826;SDS011;395;48.132;11.608;2022-09-03T07:11:09;4.50;;;3.90;;
826;SDS011;395;48.132;11.608;2022-09-03T07:13:40;3.87;;;3.57;;
826;SDS011;395;48.132;11.608;2022-09-03T07:16:19;6.17;;;3.97;;
826;SDS011;395;48.132;11.608;2022-09-03T07:18:46;3.90;;;3.60;;
826;SDS011;395;48.132;11.608;2022-09-03T07:21:16;4.70;;;4.27;;
826;SDS011;395;48.132;11.608;2022-09-03T07:23:44;4.20;;;3.87;;
826;SDS011;395;48.132;11.608;2022-09-03T07:26:14;4.90;;;4.50;;
826;SDS011;395;48.132;11.608;2022-09-03T07:28:43;4.33;;;3.87;;
826;SDS011;395;48.132;11.608;2022-09-03T07:31:16;5.07;;;4.57;;
826;SDS011;395;48.132;11.608;2022-09-03T07:33:45;4.30;;;4.00;;
826;SDS011;395;48.132;11.608;2022-09-03T07:36:12;5.10;;;4.60;;
826;SDS011;395;48.132;11.608;2022-09-03T07:38:40;4.77;;;4.27;;
826;SDS011;395;48.132;11.608;2022-09-03T07:41:08;10.70;;;4.60;;
826;SDS011;395;48.132;11.608;2022-09-03T07:43:36;4.13;;;3.83;;
826;SDS011;395;48.132;11.608;2022-09-03T07:46:22;3.93;;;3.60;;
826;SDS011;395;48.132;11.608;2022-09-03T07:48:49;4.30;;;3.90;;
826;SDS011;395;48.132;11.608;2022-09-03T07:51:20;4.20;;;3.80;;
826;SDS011;395;48.132;11.608;2022-09-03T07:53:51;4.30;;;3.90;;
826;SDS011;395;48.132;11.608;2022-09-03T07:56:22;4.40;;;4.10;;
826;SDS011;395;48.132;11.608;2022-09-03T07:58:48;4.40;;;4.00;;
826;SDS011;395;48.132;11.608;2022-09-03T08:01:15;5.00;;;4.50;;
826;SDS011;395;48.132;11.608;2022-09-03T08:03:46;5.07;;;4.27;;
826;SDS011;395;48.132;11.608;2022-09-03T08:06:13;4.30;;;4.00;;
826;SDS011;395;48.132;11.608;2022-09-03T08:08:40;4.37;;;4.07;;
826;SDS011;395;48.132;11.608;2022-09-03T08:11:11;4.77;;;4.37;;
826;SDS011;395;48.132;11.608;2022-09-03T08:14:00;4.57;;;4.17;;
826;SDS011;395;48.132;11.608;2022-09-03T08:16:27;5.83;;;4.10;;
826;SDS011;395;48.132;11.608;2022-09-03T08:18:54;4.47;;;4.07;;
826;SDS011;395;48.132;11.608;2022-09-03T08:21:20;4.80;;;4.50;;
826;SDS011;395;48.132;11.608;2022-09-03T08:23:47;4.50;;;3.70;;
826;SDS011;395;48.132;11.608;2022-09-03T08:26:15;3.77;;;3.47;;
826;SDS011;395;48.132;11.608;2022-09-03T08:28:42;4.43;;;4.03;;
826;SDS011;395;48.132;11.608;2022-09-03T08:31:13;6.30;;;5.67;;
826;SDS011;395;48.132;11.608;2022-09-03T08:33:42;5.60;;;5.10;;
826;SDS011;395;48.132;11.608;2022-09-03T08:38:49;5.67;;;5.00;;
826;SDS011;395;48.132;11.608;2022-09-03T08:41:19;5.70;;;5.10;;
826;SDS011;395;48.132;11.608;2022-09-03T08:44:51;6.73;;;5.67;;
826;SDS011;395;48.132;11.608;2022-09-03T08:50:28;6.10;;;5.60;;
826;SDS011;395;48.132;11.608;2022-09-03T08:53:06;5.97;;;5.47;;
826;SDS011;395;48.132;11.608;2022-09-03T08:58:15;5.13;;;4.70;;
826;SDS011;395;48.132;11.608;2022-09-03T09:06:22;5.27;;;4.87;;
826;SDS011;395;48.132;11.608;2022-09-03T09:22:26;4.33;;;4.03;;
826;SDS011;395;48.132;11.608;2022-09-03T09:24:57;4.17;;;3.83;;
826;SDS011;395;48.132;11.608;2022-09-03T09:27:26;8.30;;;3.50;;
826;SDS011;395;48.132;11.608;2022-09-03T09:29:53;4.23;;;3.83;;
826;SDS011;395;48.132;11.608;2022-09-03T09:32:21;4.30;;;4.00;;
826;SDS011;395;48.132;11.608;2022-09-03T09:34:47;3.53;;;3.33;;
826;SDS011;395;48.132;11.608;2022-09-03T09:37:14;4.47;;;3.60;;
826;SDS011;395;48.132;11.608;2022-09-03T09:39:52;3.63;;;3.33;;
826;SDS011;395;48.132;11.608;2022-09-03T09:42:22;2.97;;;2.73;;
826;SDS011;395;48.132;11.608;2022-09-03T09:44:48;3.10;;;2.90;;
826;SDS011;395;48.132;11.608;2022-09-03T09:49:52;3.60;;;3.30;;
826;SDS011;395;48.132;11.608;2022-09-03T09:52:25;3.50;;;3.20;;
826;SDS011;395;48.132;11.608;2022-09-03T09:55:04;3.50;;;3.20;;
826;SDS011;395;48.132;11.608;2022-09-03T09:57:41;3.50;;;3.20;;
826;SDS011;395;48.132;11.608;2022-09-03T10:00:08;3.37;;;3.17;;
826;SDS011;395;48.132;11.608;2022-09-03T10:02:37;3.10;;;2.90;;
826;SDS011;395;48.132;11.608;2022-09-03T10:07:58;2.83;;;2.43;;
826;SDS011;395;48.132;11.608;2022-09-03T10:10:26;2.53;;;2.37;;
826;SDS011;395;48.132;11.608;2022-09-03T10:13:12;2.47;;;2.27;;
826;SDS011;395;48.132;11.608;2022-09-03T10:15:50;3.00;;;2.70;;
826;SDS011;395;48.132;11.608;2022-09-03T10:18:46;3.20;;;2.87;;
826;SDS011;395;48.132;11.608;2022-09-03T10:21:21;3.43;;;2.70;;
826;SDS011;395;48.132;11.608;2022-09-03T10:24:04;3.10;;;2.80;;
826;SDS011;395;48.132;11.608;2022-09-03T10:26:47;3.40;;;2.60;;
826;SDS011;395;48.132;11.608;2022-09-03T10:29:16;3.00;;;2.80;;
826;SDS011;395;48.132;11.608;2022-09-03T10:31:54;2.87;;;2.63;;
826;SDS011;395;48.132;11.608;2022-09-03T10:56:16;2.40;;;2.20;;
826;SDS011;395;48.132;11.608;2022-09-03T10:59:06;2.70;;;2.50;;
826;SDS011;395;48.132;11.608;2022-09-03T11:07:00;2.70;;;2.40;;
826;SDS011;395;48.132;11.608;2022-09-03T11:09:47;2.73;;;2.53;;
826;SDS011;395;48.132;11.608;2022-09-03T11:12:23;2.70;;;2.50;;
826;SDS011;395;48.132;11.608;2022-09-03T11:14:58;2.27;;;2.17;;
826;SDS011;395;48.132;11.608;2022-09-03T11:17:31;2.67;;;2.47;;
826;SDS011;395;48.132;11.608;2022-09-03T11:20:10;3.00;;;2.60;;
826;SDS011;395;48.132;11.608;2022-09-03T11:22:39;2.33;;;2.13;;
826;SDS011;395;48.132;11.608;2022-09-03T11:25:07;2.23;;;2.10;;
826;SDS011;395;48.132;11.608;2022-09-03T11:30:10;3.10;;;2.63;;
826;SDS011;395;48.132;11.608;2022-09-03T11:32:53;2.47;;;2.27;;
826;SDS011;395;48.132;11.608;2022-09-03T11:35:28;2.40;;;2.20;;
826;SDS011;395;48.132;11.608;2022-09-03T11:40:33;2.53;;;2.33;;
826;SDS011;395;48.132;11.608;2022-09-03T11:43:05;2.43;;;2.33;;
826;SDS011;395;48.132;11.608;2022-09-03T11:48:56;3.07;;;2.77;;
826;SDS011;395;48.132;11.608;2022-09-03T11:51:35;2.30;;;2.20;;
826;SDS011;395;48.132;11.608;2022-09-03T11:56:31;3.03;;;2.40;;
826;SDS011;395;48.132;11.608;2022-09-03T11:59:02;2.10;;;2.00;;
826;SDS011;395;48.132;11.608;2022-09-03T12:01:59;2.00;;;1.90;;
826;SDS011;395;48.132;11.608;2022-09-03T12:04:46;2.70;;;2.50;;
826;SDS011;395;48.132;11.608;2022-09-03T12:10:24;2.20;;;2.10;;
826;SDS011;395;48.132;11.608;2022-09-03T12:13:09;2.60;;;2.40;;
826;SDS011;395;48.132;11.608;2022-09-03T12:15:52;2.47;;;2.27;;
826;SDS011;395;48.132;11.608;2022-09-03T12:18:39;2.60;;;2.40;;
826;SDS011;395;48.132;11.608;2022-09-03T12:21:06;2.13;;;1.93;;
826;SDS011;395;48.132;11.608;2022-09-03T12:26:07;2.30;;;2.10;;
826;SDS011;395;48.132;11.608;2022-09-03T12:28:46;3.20;;;2.90;;
826;SDS011;395;48.132;11.608;2022-09-03T12:31:17;2.90;;;2.70;;
826;SDS011;395;48.132;11.608;2022-09-03T12:33:47;2.97;;;2.77;;
826;SDS011;395;48.132;11.608;2022-09-03T12:36:18;3.00;;;2.70;;
826;SDS011;395;48.132;11.608;2022-09-03T12:38:45;2.50;;;2.30;;
826;SDS011;395;48.132;11.608;2022-09-03T12:41:45;3.03;;;2.40;;
826;SDS011;395;48.132;11.608;2022-09-03T12:44:28;2.20;;;2.10;;
826;SDS011;395;48.132;11.608;2022-09-03T12:49:36;2.53;;;2.17;;
826;SDS011;395;48.132;11.608;2022-09-03T12:57:41;2.80;;;2.60;;
826;SDS011;395;48.132;11.608;2022-09-03T13:00:12;3.03;;;2.77;;
826;SDS011;395;48.132;11.608;2022-09-03T13:05:19;2.80;;;2.60;;
826;SDS011;395;48.132;11.608;2022-09-03T13:07:51;2.47;;;2.17;;
826;SDS011;395;48.132;11.608;2022-09-03T13:10:28;2.57;;;2.37;;
826;SDS011;395;48.132;11.608;2022-09-03T13:13:01;3.03;;;2.47;;
826;SDS011;395;48.132;11.608;2022-09-03T13:15:29;2.50;;;2.30;;
826;SDS011;395;48.132;11.608;2022-09-03T13:20:49;2.90;;;2.60;;
826;SDS011;395;48.132;11.608;2022-09-03T13:23:30;2.97;;;2.30;;
826;SDS011;395;48.132;11.608;2022-09-03T13:26:23;2.30;;;2.20;;
826;SDS011;395;48.132;11.608;2022-09-03T13:31:51;2.37;;;1.90;;
826;SDS011;395;48.132;11.608;2022-09-03T13:34:46;2.37;;;2.27;;
826;SDS011;395;48.132;11.608;2022-09-03T13:40:27;2.37;;;2.17;;
826;SDS011;395;48.132;11.608;2022-09-03T13:43:06;2.50;;;2.13;;
826;SDS011;395;48.132;11.608;2022-09-03T13:45:55;2.43;;;2.23;;
826;SDS011;395;48.132;11.608;2022-09-03T13:48:38;2.47;;;2.27;;
826;SDS011;395;48.132;11.608;2022-09-03T13:51:37;2.13;;;2.00;;
826;SDS011;395;48.132;11.608;2022-09-03T13:56:56;4.07;;;2.50;;
826;SDS011;395;48.132;11.608;2022-09-03T14:05:14;2.80;;;2.60;;
826;SDS011;395;48.132;11.608;2022-09-03T14:16:06;2.90;;;2.70;;
826;SDS011;395;48.132;11.608;2022-09-03T14:21:24;3.43;;;2.60;;
826;SDS011;395;48.132;11.608;2022-09-03T14:26:59;2.93;;;2.73;;
826;SDS011;395;48.132;11.608;2022-09-03T14:29:29;4.80;;;3.00;;
826;SDS011;395;48.132;11.608;2022-09-03T14:40:33;30.13;;;4.70;;
826;SDS011;395;48.132;11.608;2022-09-03T14:51:25;2.27;;;1.73;;
826;SDS011;395;48.132;11.608;2022-09-03T14:54:10;3.13;;;2.30;;
826;SDS011;395;48.132;11.608;2022-09-03T15:10:49;3.20;;;2.30;;
826;SDS011;395;48.132;11.608;2022-09-03T15:13:20;2.50;;;2.10;;
826;SDS011;395;48.132;11.608;2022-09-03T15:15:58;2.53;;;2.33;;
826;SDS011;395;48.132;11.608;2022-09-03T15:19:00;2.13;;;1.93;;
826;SDS011;395;48.132;11.608;2022-09-03T15:29:48;3.13;;;2.60;;
826;SDS011;395;48.132;11.608;2022-09-03T15:38:33;5.97;;;4.73;;
826;SDS011;395;48.132;11.608;2022-09-03T15:41:21;3.30;;;2.90;;
826;SDS011;395;48.132;11.608;2022-09-03T15:44:00;3.17;;;2.80;;
826;SDS011;395;48.132;11.608;2022-09-03T15:46:34;2.60;;;2.40;;
826;SDS011;395;48.132;11.608;2022-09-03T15:49:27;2.30;;;1.60;;
826;SDS011;395;48.132;11.608;2022-09-03T15:57:40;2.87;;;2.23;;
826;SDS011;395;48.132;11.608;2022-09-03T16:00:37;2.13;;;1.93;;
826;SDS011;395;48.132;11.608;2022-09-03T16:03:18;3.40;;;2.23;;
826;SDS011;395;48.132;11.608;2022-09-03T16:06:06;3.23;;;2.47;;
826;SDS011;395;48.132;11.608;2022-09-03T16:08:47;2.40;;;2.10;;
826;SDS011;395;48.132;11.608;2022-09-03T16:19:44;3.10;;;2.70;;
826;SDS011;395;48.132;11.608;2022-09-03T16:22:20;3.70;;;3.10;;
826;SDS011;395;48.132;11.608;2022-09-03T16:25:02;2.97;;;2.63;;
826;SDS011;395;48.132;11.608;2022-09-03T16:30:09;3.00;;;2.80;;
826;SDS011;395;48.132;11.608;2022-09-03T16:32:41;2.50;;;2.30;;
826;SDS011;395;48.132;11.608;2022-09-03T16:38:26;3.13;;;2.47;;
826;SDS011;395;48.132;11.608;2022-09-03T16:49:28;2.87;;;2.37;;
826;SDS011;395;48.132;11.608;2022-09-03T17:00:02;2.50;;;2.30;;
826;SDS011;395;48.132;11.608;2022-09-03T17:25:28;2.37;;;2.17;;
826;SDS011;395;48.132;11.608;2022-09-03T17:28:58;4.43;;;2.47;;
826;SDS011;395;48.132;11.608;2022-09-03T17:40:25;2.53;;;2.27;;
826;SDS011;395;48.132;11.608;2022-09-03T17:48:12;2.27;;;2.07;;
826;SDS011;395;48.132;11.608;2022-09-03T17:54:11;2.50;;;2.20;;
826;SDS011;395;48.132;11.608;2022-09-03T17:56:29;3.00;;;2.03;;
826;SDS011;395;48.132;11.608;2022-09-03T18:01:30;4.83;;;2.33;;
826;SDS011;395;48.132;11.608;2022-09-03T18:04:46;2.07;;;1.87;;
826;SDS011;395;48.132;11.608;2022-09-03T18:16:25;1.80;;;1.70;;
826;SDS011;395;48.132;11.608;2022-09-03T18:19:05;4.23;;;2.40;;
826;SDS011;395;48.132;11.608;2022-09-03T18:21:42;3.03;;;2.60;;
826;SDS011;395;48.132;11.608;2022-09-03T18:27:39;2.10;;;1.93;;
826;SDS011;395;48.132;11.608;2022-09-03T18:30:30;1.93;;;1.73;;
826;SDS011;395;48.132;11.608;2022-09-03T18:33:16;2.07;;;1.80;;
826;SDS011;395;48.132;11.608;2022-09-03T18:36:05;2.40;;;1.77;;
826;SDS011;395;48.132;11.608;2022-09-03T18:38:50;1.60;;;1.43;;
826;SDS011;395;48.132;11.608;2022-09-03T18:45:08;1.50;;;1.40;;
826;SDS011;395;48.132;11.608;2022-09-03T18:51:39;1.40;;;1.30;;
826;SDS011;395;48.132;11.608;2022-09-03T19:01:13;1.83;;;1.50;;
826;SDS011;395;48.132;11.608;2022-09-03T19:10:15;2.00;;;1.80;;
826;SDS011;395;48.132;11.608;2022-09-03T19:16:20;1.37;;;1.20;;
826;SDS011;395;48.132;11.608;2022-09-03T19:22:48;1.60;;;1.33;;
826;SDS011;395;48.132;11.608;2022-09-03T19:25:26;1.53;;;1.43;;
826;SDS011;395;48.132;11.608;2022-09-03T19:28:22;1.90;;;1.70;;
826;SDS011;395;48.132;11.608;2022-09-03T19:37:12;6.40;;;4.10;;
826;SDS011;395;48.132;11.608;2022-09-03T19:40:15;2.87;;;2.37;;
826;SDS011;395;48.132;11.608;2022-09-03T19:46:49;2.53;;;1.83;;
826;SDS011;395;48.132;11.608;2022-09-03T19:50:23;2.30;;;1.93;;
826;SDS011;395;48.132;11.608;2022-09-03T19:55:48;3.43;;;2.67;;
826;SDS011;395;48.132;11.608;2022-09-03T19:58:41;2.57;;;2.37;;
826;SDS011;395;48.132;11.608;2022-09-03T20:01:32;6.07;;;4.30;;
826;SDS011;395;48.132;11.608;2022-09-03T20:04:19;5.30;;;4.50;;
826;SDS011;395;48.132;11.608;2022-09-03T20:07:09;3.67;;;3.37;;
826;SDS011;395;48.132;11.608;2022-09-03T20:09:53;2.47;;;2.00;;
826;SDS011;395;48.132;11.608;2022-09-03T20:12:44;2.33;;;1.80;;
826;SDS011;395;48.132;11.608;2022-09-03T20:15:14;2.07;;;1.80;;
826;SDS011;395;48.132;11.608;2022-09-03T20:20:32;1.73;;;1.60;;
826;SDS011;395;48.132;11.608;2022-09-03T20:26:13;2.57;;;2.13;;
826;SDS011;395;48.132;11.608;2022-09-03T20:29:07;2.37;;;2.03;;
826;SDS011;395;48.132;11.608;2022-09-03T20:31:42;1.90;;;1.80;;
826;SDS011;395;48.132;11.608;2022-09-03T20:39:45;2.47;;;1.97;;
826;SDS011;395;48.132;11.608;2022-09-03T20:55:49;2.50;;;2.30;;
826;SDS011;395;48.132;11.608;2022-09-03T21:01:05;3.27;;;2.30;;
826;SDS011;395;48.132;11.608;2022-09-03T21:03:41;2.97;;;2.00;;
826;SDS011;395;48.132;11.608;2022-09-03T21:11:36;3.00;;;2.70;;
826;SDS011;395;48.132;11.608;2022-09-03T21:17:04;5.90;;;5.00;;
826;SDS011;395;48.132;11.608;2022-09-03T21:25:47;2.93;;;2.63;;
826;SDS011;395;48.132;11.608;2022-09-03T21:28:37;2.40;;;2.20;;
826;SDS011;395;48.132;11.608;2022-09-03T21:33:44;2.30;;;2.10;;
826;SDS011;395;48.132;11.608;2022-09-03T21:36:13;2.03;;;1.80;;
826;SDS011;395;48.132;11.608;2022-09-03T21:39:04;2.60;;;2.40;;
826;SDS011;395;48.132;11.608;2022-09-03T21:41:45;2.60;;;1.90;;
826;SDS011;395;48.132;11.608;2022-09-03T21:44:23;2.97;;;2.50;;
826;SDS011;395;48.132;11.608;2022-09-03T21:47:12;2.47;;;2.27;;
826;SDS011;395;48.132;11.608;2022-09-03T21:52:27;4.63;;;2.17;;
826;SDS011;395;48.132;11.608;2022-09-03T21:55:50;2.00;;;1.47;;
826;SDS011;395;48.132;11.608;2022-09-03T22:00:43;1.83;;;1.73;;
826;SDS011;395;48.132;11.608;2022-09-03T22:03:10;2.10;;;1.90;;
826;SDS011;395;48.132;11.608;2022-09-03T22:05:45;2.50;;;2.00;;
826;SDS011;395;48.132;11.608;2022-09-03T22:13:50;3.10;;;2.33;;
826;SDS011;395;48.132;11.608;2022-09-03T22:19:16;2.13;;;2.00;;
826;SDS011;395;48.132;11.608;2022-09-03T22:21:52;2.17;;;1.97;;
826;SDS011;395;48.132;11.608;2022-09-03T22:24:43;2.40;;;1.73;;
826;SDS011;395;48.132;11.608;2022-09-03T22:27:33;2.30;;;2.10;;
826;SDS011;395;48.132;11.608;2022-09-03T22:30:17;2.20;;;2.10;;
826;SDS011;395;48.132;11.608;2022-09-03T22:35:40;3.43;;;2.43;;
826;SDS011;395;48.132;11.608;2022-09-03T22:47:03;3.47;;;2.30;;
826;SDS011;395;48.132;11.608;2022-09-03T22:50:07;3.97;;;2.73;;
826;SDS011;395;48.132;11.608;2022-09-03T22:55:48;4.17;;;3.67;;
826;SDS011;395;48.132;11.608;2022-09-03T22:58:28;4.30;;;3.90;;
826;SDS011;395;48.132;11.608;2022-09-03T23:00:59;3.90;;;3.50;;
826;SDS011;395;48.132;11.608;2022-09-03T23:03:44;3.50;;;3.20;;
826;SDS011;395;48.132;11.608;2022-09-03T23:06:19;2.60;;;2.40;;
826;SDS011;395;48.132;11.608;2022-09-03T23:08:55;3.20;;;2.70;;
826;SDS011;395;48.132;11.608;2022-09-03T23:11:41;2.73;;;2.47;;
826;SDS011;395;48.132;11.608;2022-09-03T23:14:11;2.07;;;1.87;;
826;SDS011;395;48.132;11.608;2022-09-03T23:16:45;2.23;;;2.00;;
826;SDS011;395;48.132;11.608;2022-09-03T23:19:35;1.63;;;1.53;;
826;SDS011;395;48.132;11.608;2022-09-03T23:27:46;3.70;;;2.30;;
826;SDS011;395;48.132;11.608;2022-09-03T23:30:14;2.60;;;1.77;;
826;SDS011;395;48.132;11.608;2022-09-03T23:32:40;2.10;;;1.90;;
826;SDS011;395;48.132;11.608;2022-09-03T23:35:11;2.50;;;1.70;;